Weather at Kaplja Vas Ultralightport

Public forecast

Using degrees Celsius for public forecast. Weather courtesy of forecast.io.

Closest aviation weather report (METAR) to Kaplja Vas Ultralightport

Closest report is Ljubljana Jože Pučnik Airport, 25.6 nm (47.4 km) W.

2024/05/22 17:00 (retrieved 36 minutes ago)

LJLJ 221700Z 27006KT 220V310 9999 -SHRA FEW035TCU SCT055 BKN095 18/13 Q1013 NOSIG

Closest aviation forecast (TAF) to Kaplja Vas Ultralightport

Closest forecast is Ljubljana Jože Pučnik Airport, 25.6 nm (47.4 km) W.

2024/05/22 12:06 (retrieved 5 hours ago)

TAF LJLJ 221100Z 2212/2312 29004KT 9999 FEW010 SCT030 BKN050 TEMPO 2212/2216 SHRA SCT025TCU BKN040 TEMPO 2212/2216 5000 TSRA SCT025CB BKN040 PROB30 TEMPO 2300/2307 0500 FG VV002 TEMPO 2309/2312 SHRA FEW035TCU SCT050 PROB30 TEMPO 2310/2312 5000 TSRA FEW035CB BKN050